Portada
METAR-TAF:

METAR-TAF

Aeropuertos :

Sapporo, Japón

Aeropuerto de Okadama

latitud: 43-07N, longitud: 141-23E, altitud: 8 m

Observación

El informe se hizo hace 2 horas y 58 minutos, a las 23:35 UTC
Viento 3 kt del este-sureste
Temperatura -4°C
Humedad 93%
Presión 1017 hPa
Visibilidad 10 km o más
Escasas nubes a una altura de 500 ft
Nubes dispersas a una altura de 700 ft
Cielo nuboso a una altura de 20000 ft
Niebla baja

METAR: RJCO 222335Z 11003KT 9999 MIFG FEW005 SCT007 BKN200 M04/M05 Q1017 RMK 1ST005 3ST007 5CI200 A3005 0800NW-NE

Hora: 11:33 (02:33 UTC)


TAF: falta

Observaciones y pronósticos meteorológicos de más de 4000 aeropuertos (mensajes METAR y TAF).

Los puntos amarillos y rojos representan las estaciones disponibles.

Ponga el ratón en el punto deseado para ver el nombre de la estación.

Haga clic para ver las observaciones y los pronósticos meteorológicos.

Para cambiar el mapa : haga clic en los botones verdes con una cruz de color negro para hacer un zoom, en el botón verde con un guión para alejar o en las flechas verdes para mapas adyacentes.


METAR-TAF: